Main page
METAR-TAF:

METAR-TAF

Airports :

Melilla, Spain

Melilla Airport

latitude: 35-17N, longitude: 002-57W, elevation: 47 m

Current weather observation

The report was made 11 minutes ago, at 07:00 UTC
Wind 2 kt from variable directions
Temperature 11°C
Humidity 87%
Pressure 1021 hPa
Visibility 10 km or more
no clouds below 1500 m and no cumulonimbus

METAR: GEML 180700Z VRB02KT CAVOK 11/09 Q1021

Time: 08:11 (07:11 UTC)

Forecast

The report was made 5 hours and 11 minutes ago, at 02:00 UTC
Forecast valid from 18 at 03 UTC to 19 at 03 UTC
Wind 10 kt from the West/Southwest
Visibility 10 km or more
Few clouds at a height of 1500 ft
Becoming
from 18 at 07 UTC to 18 at 09 UTC
Wind 6 kt from the East

TAF: GEML 180200Z 1803/1903 24010KT 9999 FEW015 TX18/1813Z TN08/1807Z BECMG 1807/1809 08006KT

Weather observations and forecasts of more than 4000 airports (METAR and TAF reports).

The available stations are represented by yellow and red dots on the map.

Hover mouse over dot to see the name of the station.

Then click to see weather observations and forecasts.

To change the map : click on the green buttons with a black cross to zoom in, on the green button with a dash to zoom out, or on the green arrows for adjacent maps.


METAR-TAF: